Decoded Metar for PACV (CORDOVA in AK, USA) (IATA:CDV) | Meteo·Mobile Aviation Weather
aviador You're here:

PACV Decoded Metar

CORDOVA in AK, USA
Report Time2019-02-17 05:27:00
UTC Time2019-02-17 05:35:22
Flight Rules ifr IFR
Wind040° at 03 kt
W.Decomp.*RWY 34: 2.3 kt HW 2.0 kt RCW
RWY 09: 1.1 kt HW 2.8 kt LCW
W.Rank040° ranks 10
Current wind is below 040° avg. (4.5)
Visibility2816 m
Phenomena:Light Snow
Mist
Clouds:Overcast 024 Hf
Expected CloudBase > 800 ft AGL from Temp-Dew spread
Ceiling2,400 ft
Temp-1°C (ISA -16)
Dew Point-3°C (86% RH)
AAT-4.5°C
QNH1028 hPa
Density Alt-2,356 ft
Elevation39 ft
Report Wrong Elevation
Raw Report
SPECI PACV 170527Z 04003KT 1 3/4SM -SN BR OVC024 M01/M03 A3035 RMK
AO2 P0000 T10111033=

Extra information for PACV:More info

Metar Taf Metar & Taf Last 4 Metars F.Rules Stats Wind Profile Meteogram Temp Stats Airport Information Weather charts Add Link Nearby VenuesMetar ALERT Operation Metar Decoded Social comments

AIRNAV info for PACV